Time;durP1;ratioP1;P1;durP2;ratioP2;P2;SDS_P1;SDS_P2;PMS_P1;PMS_P2;Temp;Humidity;BMP_temperature;BMP_pressure;BME280_temperature;BME280_humidity;BME280_pressure;Samples;Min_cycle;Max_cycle;Signal;HPM_P1;HPM_P2
2022/11/09 00:00:36;;;;;;;2.42;1.08;;;19.50;61.70;;;;;;5037194;28;20412;-72
2022/11/09 00:03:01;;;;;;;3.78;1.33;;;19.50;61.80;;;;;;5032521;28;20239;-73
2022/11/09 00:05:27;;;;;;;2.05;1.10;;;19.50;61.70;;;;;;5042302;28;20132;-73
2022/11/09 00:07:52;;;;;;;3.42;1.08;;;19.50;61.70;;;;;;5041128;28;20851;-71
2022/11/09 00:10:18;;;;;;;3.15;1.33;;;19.50;61.70;;;;;;5036455;28;20417;-73
2022/11/09 00:12:43;;;;;;;5.13;1.20;;;19.40;61.60;;;;;;5033732;28;21796;-73
2022/11/09 00:15:10;;;;;;;3.58;1.27;;;19.50;61.70;;;;;;5036007;28;20041;-73
2022/11/09 00:17:35;;;;;;;6.13;1.40;;;19.50;61.70;;;;;;5035498;28;20440;-72
2022/11/09 00:20:01;;;;;;;1.98;1.08;;;19.50;61.70;;;;;;5038634;28;20037;-71
2022/11/09 00:22:27;;;;;;;3.17;0.98;;;19.50;61.70;;;;;;5040419;28;20063;-72
2022/11/09 00:24:52;;;;;;;1.70;1.13;;;19.50;61.70;;;;;;5033906;28;20049;-72
2022/11/09 00:27:18;;;;;;;1.77;1.20;;;19.50;61.70;;;;;;5035159;28;20152;-73
2022/11/09 00:29:43;;;;;;;4.32;1.10;;;19.50;61.70;;;;;;5035772;28;20052;-73
2022/11/09 00:32:09;;;;;;;1.90;1.00;;;19.40;61.70;;;;;;5039039;28;20132;-71
2022/11/09 00:34:34;;;;;;;3.40;1.40;;;19.40;61.70;;;;;;5038928;28;20039;-73
2022/11/09 00:37:00;;;;;;;2.53;1.02;;;19.40;61.70;;;;;;5032322;28;20044;-72
2022/11/09 00:39:25;;;;;;;2.67;1.13;;;19.50;61.70;;;;;;5038939;28;20140;-72
2022/11/09 00:41:51;;;;;;;2.17;1.17;;;19.50;61.70;;;;;;5038679;28;20139;-71
2022/11/09 00:44:16;;;;;;;3.08;1.10;;;19.40;61.70;;;;;;5039369;28;20041;-72
2022/11/09 00:46:42;;;;;;;1.85;1.08;;;19.40;61.70;;;;;;5037007;28;20037;-72
2022/11/09 00:49:07;;;;;;;2.67;1.10;;;19.40;61.70;;;;;;5040374;28;20048;-73
2022/11/09 00:51:33;;;;;;;2.90;1.20;;;19.40;61.70;;;;;;5032679;28;20037;-72
2022/11/09 00:53:58;;;;;;;2.65;1.20;;;19.40;61.70;;;;;;5036495;28;20049;-71
2022/11/09 00:56:24;;;;;;;2.20;1.08;;;19.40;61.60;;;;;;5035760;28;20044;-72
2022/11/09 00:58:53;;;;;;;2.13;1.15;;;19.40;61.70;;;;;;5019691;28;20037;-72
2022/11/09 01:01:19;;;;;;;2.10;1.20;;;19.40;61.60;;;;;;5035061;28;21130;-72
2022/11/09 01:03:45;;;;;;;2.45;1.17;;;19.40;61.70;;;;;;5040215;28;20041;-72
2022/11/09 01:06:19;;;;;;;3.35;1.20;;;19.40;61.60;;;;;;5036083;28;20079;-72
2022/11/09 01:08:46;;;;;;;1.98;0.90;;;19.40;61.60;;;;;;5052929;28;20048;-73
2022/11/09 01:11:12;;;;;;;2.97;1.17;;;19.40;61.60;;;;;;5032890;28;20096;-73
2022/11/09 01:13:39;;;;;;;2.92;0.98;;;19.40;61.60;;;;;;5038782;28;20040;-71
2022/11/09 01:16:08;;;;;;;2.50;1.10;;;19.40;61.60;;;;;;5035599;28;20037;-72
2022/11/09 01:18:34;;;;;;;3.30;1.02;;;19.40;61.60;;;;;;5034034;28;20053;-73
2022/11/09 01:21:02;;;;;;;2.95;1.17;;;19.40;61.50;;;;;;5038697;28;20041;-72
2022/11/09 01:23:27;;;;;;;2.05;1.00;;;19.40;61.60;;;;;;5038409;28;20079;-72
2022/11/09 01:26:02;;;;;;;2.03;1.13;;;19.40;61.60;;;;;;5038787;28;20427;-70
2022/11/09 01:28:29;;;;;;;1.95;1.20;;;19.40;61.50;;;;;;5035437;28;20068;-72
2022/11/09 01:30:59;;;;;;;2.25;1.08;;;19.40;62.30;;;;;;5040475;28;20041;-72
2022/11/09 01:33:25;;;;;;;4.20;1.27;;;19.30;61.50;;;;;;5032772;28;20480;-73
2022/11/09 01:35:50;;;;;;;1.58;0.90;;;19.40;61.50;;;;;;5037789;28;20137;-73
2022/11/09 01:38:16;;;;;;;2.45;1.10;;;19.40;61.50;;;;;;5037692;28;20077;-72
2022/11/09 01:40:41;;;;;;;4.03;1.35;;;19.30;61.50;;;;;;5036634;28;20079;-72
2022/11/09 01:43:22;;;;;;;2.17;1.20;;;19.40;61.50;;;;;;5032333;28;20048;-73
2022/11/09 01:45:52;;;;;;;3.33;1.10;;;19.40;61.50;;;;;;5036200;28;20155;-71
2022/11/09 01:48:23;;;;;;;1.30;1.00;;;19.40;61.50;;;;;;5036699;28;20048;-71
2022/11/09 01:51:05;;;;;;;3.20;1.10;;;19.40;61.50;;;;;;5038309;28;20053;-71
2022/11/09 01:53:35;;;;;;;2.03;1.00;;;19.40;61.40;;;;;;5032874;28;20060;-73
2022/11/09 01:56:05;;;;;;;1.73;0.90;;;19.30;61.40;;;;;;5033840;28;20048;-73
2022/11/09 01:58:44;;;;;;;1.27;0.80;;;19.30;61.40;;;;;;5035713;28;20136;-71
2022/11/09 02:01:13;;;;;;;2.67;1.23;;;19.30;61.30;;;;;;5037605;28;20060;-72
2022/11/09 02:03:54;;;;;;;2.35;1.10;;;19.30;61.40;;;;;;5034163;28;20137;-70
2022/11/09 02:06:22;;;;;;;1.90;1.10;;;19.30;61.30;;;;;;5035071;28;20095;-72
2022/11/09 02:08:49;;;;;;;2.17;1.20;;;19.30;61.30;;;;;;5035820;28;20045;-72
2022/11/09 02:11:18;;;;;;;2.63;1.20;;;19.30;61.30;;;;;;5035396;28;20084;-72
2022/11/09 02:13:48;;;;;;;2.60;1.10;;;19.30;61.40;;;;;;5020144;28;20045;-72
2022/11/09 02:16:14;;;;;;;4.28;1.30;;;19.30;61.30;;;;;;5036710;28;20139;-72
2022/11/09 02:18:52;;;;;;;3.10;1.20;;;19.30;61.30;;;;;;5036101;28;20033;-73
2022/11/09 02:21:18;;;;;;;;;;;19.30;61.30;;;;;;5033459;28;20459;-72
2022/11/09 02:23:44;;;;;;;5.22;1.25;;;19.30;61.30;;;;;;5035185;28;19924;-71
2022/11/09 02:26:15;;;;;;;2.35;0.95;;;19.30;61.40;;;;;;5020811;28;20049;-73
2022/11/09 02:28:41;;;;;;;3.22;1.10;;;19.30;61.30;;;;;;5039218;28;20061;-73
2022/11/09 02:31:11;;;;;;;1.85;0.88;;;19.30;61.30;;;;;;5035188;28;20067;-73
2022/11/09 02:33:54;;;;;;;3.33;1.20;;;19.30;61.30;;;;;;5024645;28;20044;-73
2022/11/09 02:36:22;;;;;;;2.67;1.30;;;19.30;61.30;;;;;;5041405;28;20083;-72
2022/11/09 02:38:49;;;;;;;2.45;1.10;;;19.30;61.30;;;;;;5041895;28;20544;-73
2022/11/09 02:41:16;;;;;;;3.53;1.42;;;19.30;61.30;;;;;;5037738;28;20054;-72
2022/11/09 02:43:41;;;;;;;2.30;0.95;;;19.30;61.30;;;;;;5037790;28;20140;-71
2022/11/09 02:46:07;;;;;;;2.35;1.08;;;19.30;61.20;;;;;;5039665;28;20218;-73
2022/11/09 02:48:32;;;;;;;3.10;1.30;;;19.30;61.20;;;;;;5038908;28;20032;-72
2022/11/09 02:50:58;;;;;;;2.80;1.08;;;19.30;61.20;;;;;;5038894;28;20045;-71
2022/11/09 02:53:24;;;;;;;2.38;1.10;;;19.30;61.20;;;;;;5042167;28;20060;-73
2022/11/09 02:55:49;;;;;;;3.75;1.50;;;19.30;61.20;;;;;;5041489;28;20060;-71
2022/11/09 02:58:15;;;;;;;2.03;1.00;;;19.30;61.20;;;;;;5037499;28;20068;-72
2022/11/09 03:00:41;;;;;;;2.38;0.98;;;19.30;61.20;;;;;;5040243;28;20049;-72
2022/11/09 03:03:07;;;;;;;4.35;1.20;;;19.30;61.20;;;;;;5043040;28;20048;-72
2022/11/09 03:05:32;;;;;;;3.95;1.25;;;19.30;61.20;;;;;;5041765;28;20037;-72
2022/11/09 03:08:01;;;;;;;2.95;1.05;;;19.30;61.20;;;;;;5039270;28;20048;-71
2022/11/09 03:10:27;;;;;;;2.88;1.20;;;19.30;61.10;;;;;;5036999;28;20048;-72
2022/11/09 03:12:53;;;;;;;2.63;1.30;;;19.30;61.10;;;;;;5038129;28;20372;-72
2022/11/09 03:15:19;;;;;;;1.60;1.02;;;19.30;61.10;;;;;;5039010;28;20049;-73
2022/11/09 03:17:45;;;;;;;2.20;1.08;;;19.30;61.10;;;;;;5041871;28;20553;-73
2022/11/09 03:20:11;;;;;;;2.65;1.10;;;19.30;61.10;;;;;;5037579;28;20049;-71
2022/11/09 03:22:37;;;;;;;2.25;0.95;;;19.30;61.10;;;;;;5041356;28;20041;-72
2022/11/09 03:25:03;;;;;;;4.20;1.00;;;19.30;61.10;;;;;;5039149;28;20045;-72
2022/11/09 03:27:29;;;;;;;2.20;0.93;;;19.30;61.10;;;;;;5038335;28;20573;-72
2022/11/09 03:29:54;;;;;;;2.88;0.98;;;19.30;61.10;;;;;;5037249;28;20048;-72
2022/11/09 03:32:20;;;;;;;1.77;1.00;;;19.30;61.10;;;;;;5040056;28;20060;-72
2022/11/09 03:34:45;;;;;;;3.00;1.27;;;19.30;61.20;;;;;;5036813;28;20048;-72
2022/11/09 03:37:11;;;;;;;2.28;1.27;;;19.30;61.20;;;;;;5036801;28;20049;-72
2022/11/09 03:39:36;;;;;;;2.20;1.20;;;19.30;61.10;;;;;;5038154;28;20500;-71
2022/11/09 03:42:02;;;;;;;2.95;1.00;;;19.30;61.10;;;;;;5037909;28;20036;-72
2022/11/09 03:44:27;;;;;;;2.50;1.20;;;19.30;61.10;;;;;;5040917;28;20179;-70
2022/11/09 03:46:53;;;;;;;1.95;1.00;;;19.30;61.10;;;;;;5035765;28;20131;-72
2022/11/09 03:49:19;;;;;;;1.98;1.25;;;19.30;61.00;;;;;;5039314;28;20135;-72
2022/11/09 03:51:44;;;;;;;2.33;1.10;;;19.30;61.10;;;;;;5039491;28;20041;-71
2022/11/09 03:54:10;;;;;;;2.53;1.10;;;19.30;61.10;;;;;;5043914;28;20052;-72
2022/11/09 03:56:35;;;;;;;3.33;1.15;;;19.30;61.10;;;;;;5040355;28;20037;-72
2022/11/09 03:59:01;;;;;;;2.65;1.10;;;19.30;61.00;;;;;;5036388;28;20086;-73
2022/11/09 04:01:27;;;;;;;3.00;1.10;;;19.30;61.00;;;;;;5036552;28;20041;-72
2022/11/09 04:03:53;;;;;;;3.40;1.10;;;19.30;61.00;;;;;;5044154;28;20396;-71
2022/11/09 04:06:18;;;;;;;2.17;0.95;;;19.30;60.90;;;;;;5037895;28;20045;-72
2022/11/09 04:08:44;;;;;;;4.22;1.45;;;19.30;61.00;;;;;;5038603;28;20040;-72
2022/11/09 04:11:10;;;;;;;2.97;0.98;;;19.30;60.90;;;;;;5038961;28;20045;-73
2022/11/09 04:13:36;;;;;;;1.98;1.00;;;19.30;60.90;;;;;;5036007;28;20560;-72
2022/11/09 04:16:01;;;;;;;2.22;1.42;;;19.30;61.00;;;;;;5040595;28;20041;-73
2022/11/09 04:18:27;;;;;;;3.47;1.00;;;19.30;61.00;;;;;;5036331;28;20044;-73
2022/11/09 04:20:52;;;;;;;3.10;1.10;;;19.30;60.90;;;;;;5035691;28;20076;-72
2022/11/09 04:23:18;;;;;;;1.25;0.90;;;19.30;60.90;;;;;;5055611;28;20178;-72
2022/11/09 04:25:44;;;;;;;1.30;0.90;;;19.30;60.90;;;;;;5036031;28;20080;-73
2022/11/09 04:28:11;;;;;;;1.27;1.00;;;19.30;60.90;;;;;;5038255;28;20063;-71
2022/11/09 04:30:37;;;;;;;4.40;1.10;;;19.30;60.90;;;;;;5030947;28;20091;-73
2022/11/09 04:33:04;;;;;;;3.17;1.08;;;19.30;60.80;;;;;;5041026;28;20421;-73
2022/11/09 04:35:32;;;;;;;3.08;0.95;;;19.30;60.90;;;;;;5037004;28;20059;-72
2022/11/09 04:38:05;;;;;;;1.85;0.80;;;19.30;60.80;;;;;;5038633;28;20045;-72
2022/11/09 04:40:33;;;;;;;3.38;1.30;;;19.30;60.80;;;;;;5033953;28;20519;-72
2022/11/09 04:43:00;;;;;;;1.98;1.15;;;19.30;60.80;;;;;;5036060;28;20481;-73
2022/11/09 04:45:26;;;;;;;2.65;1.10;;;19.30;60.80;;;;;;5035815;28;20028;-72
2022/11/09 04:47:57;;;;;;;2.55;0.90;;;19.30;60.80;;;;;;5035034;28;20561;-72
2022/11/09 04:50:23;;;;;;;2.42;1.20;;;19.30;60.70;;;;;;5022002;28;20047;-72
2022/11/09 04:52:49;;;;;;;1.95;1.00;;;19.30;60.70;;;;;;5038649;28;20045;-73
2022/11/09 04:55:14;;;;;;;2.13;1.02;;;19.30;60.70;;;;;;5034601;28;20041;-72
2022/11/09 04:57:40;;;;;;;1.92;0.85;;;19.30;60.70;;;;;;5037441;28;20037;-71
2022/11/09 05:00:06;;;;;;;1.30;0.80;;;19.30;60.70;;;;;;5038380;28;20510;-72
2022/11/09 05:02:31;;;;;;;2.22;1.20;;;19.20;60.60;;;;;;5041702;28;20099;-73
2022/11/09 05:04:57;;;;;;;1.77;0.75;;;19.30;60.70;;;;;;5034534;28;20563;-71
2022/11/09 05:07:22;;;;;;;3.85;1.10;;;19.30;60.70;;;;;;5037133;28;20045;-72
2022/11/09 05:09:48;;;;;;;2.45;1.05;;;19.30;60.70;;;;;;5033745;28;20033;-71
2022/11/09 05:12:14;;;;;;;3.03;1.20;;;19.30;60.70;;;;;;5035403;28;20345;-73
2022/11/09 05:14:39;;;;;;;1.23;0.93;;;19.30;60.70;;;;;;5037611;28;20125;-72
2022/11/09 05:17:05;;;;;;;3.70;1.15;;;19.30;60.70;;;;;;5038702;28;20044;-72
2022/11/09 05:19:31;;;;;;;2.47;1.20;;;19.30;60.70;;;;;;5037135;28;20037;-71
2022/11/09 05:23:57;;;;;;;3.50;1.00;;;19.30;60.70;;;;;;5037612;28;20555;-72
2022/11/09 05:24:42;;;;;;;2.78;1.17;;;19.20;60.60;;;;;;5038905;28;20447;-73
2022/11/09 05:27:07;;;;;;;4.05;1.08;;;19.30;60.60;;;;;;5035774;28;20045;-73
2022/11/09 05:29:33;;;;;;;2.72;1.00;;;19.30;60.60;;;;;;5036841;28;20555;-71
2022/11/09 05:31:58;;;;;;;2.10;0.90;;;19.30;60.60;;;;;;5039829;28;20467;-73
2022/11/09 05:34:24;;;;;;;2.13;0.90;;;19.30;60.60;;;;;;5035901;28;20087;-74
2022/11/09 05:36:50;;;;;;;1.75;1.17;;;19.30;60.70;;;;;;5037864;28;20091;-73
2022/11/09 05:39:15;;;;;;;3.20;1.30;;;19.30;60.70;;;;;;5039628;28;20049;-74
2022/11/09 05:41:41;;;;;;;2.42;1.17;;;19.30;60.70;;;;;;5036592;28;21152;-74
2022/11/09 05:44:06;;;;;;;2.55;1.10;;;19.30;60.60;;;;;;5033105;28;20049;-74
2022/11/09 05:46:33;;;;;;;3.05;1.13;;;19.20;60.60;;;;;;5039771;28;20424;-74
2022/11/09 05:48:58;;;;;;;3.80;1.20;;;19.20;60.60;;;;;;5037478;28;20143;-74
2022/11/09 05:51:24;;;;;;;4.00;1.15;;;19.30;60.60;;;;;;5038773;28;20120;-73
2022/11/09 05:53:50;;;;;;;2.10;0.90;;;19.20;60.60;;;;;;5038376;28;20086;-74
2022/11/09 05:56:15;;;;;;;1.98;1.10;;;19.30;60.70;;;;;;5034484;28;20945;-74
2022/11/09 05:58:41;;;;;;;1.25;0.88;;;19.30;60.70;;;;;;5032233;28;20044;-73
2022/11/09 06:01:10;;;;;;;2.33;1.05;;;19.30;60.60;;;;;;5029964;28;20051;-73
2022/11/09 06:03:36;;;;;;;2.05;0.85;;;19.30;60.60;;;;;;5036644;28;20068;-74
2022/11/09 06:06:07;;;;;;;3.25;0.93;;;19.30;60.60;;;;;;5034091;28;20055;-74
2022/11/09 06:08:33;;;;;;;2.57;1.10;;;19.30;60.60;;;;;;5017594;28;20091;-74
2022/11/09 06:11:02;;;;;;;3.53;1.20;;;19.30;60.60;;;;;;5034641;28;20308;-74
2022/11/09 06:13:28;;;;;;;2.70;1.10;;;19.30;60.60;;;;;;5032110;28;20060;-75
2022/11/09 06:15:56;;;;;;;4.10;1.05;;;19.30;60.60;;;;;;5033380;28;20037;-74
2022/11/09 06:18:23;;;;;;;2.20;1.00;;;19.30;60.60;;;;;;5038408;28;20033;-74
2022/11/09 06:20:57;;;;;;;4.00;1.25;;;19.30;60.60;;;;;;5032305;28;20072;-74
2022/11/09 06:23:24;;;;;;;1.33;0.98;;;19.30;60.60;;;;;;5033144;28;20084;-73
2022/11/09 06:26:10;;;;;;;1.45;1.00;;;19.30;60.60;;;;;;5036379;28;20433;-72
2022/11/09 06:28:37;;;;;;;1.65;0.75;;;19.30;60.50;;;;;;5035739;28;20092;-74
2022/11/09 06:31:04;;;;;;;2.55;0.80;;;19.30;60.50;;;;;;5036871;28;20507;-73
2022/11/09 06:33:34;;;;;;;2.40;1.00;;;19.30;60.50;;;;;;5036450;28;20041;-73
2022/11/09 06:36:01;;;;;;;2.38;1.30;;;19.30;60.60;;;;;;5035390;28;20041;-73
2022/11/09 06:38:27;;;;;;;2.63;1.10;;;19.30;60.60;;;;;;5036483;28;20045;-73
2022/11/09 06:40:55;;;;;;;3.28;1.10;;;19.30;60.50;;;;;;5017068;28;20041;-72
2022/11/09 06:43:22;;;;;;;3.53;1.00;;;19.30;60.60;;;;;;5026817;28;20509;-72
2022/11/09 06:45:51;;;;;;;5.22;1.30;;;19.20;60.60;;;;;;5019853;28;21475;-72
2022/11/09 06:48:23;;;;;;;4.35;1.27;;;19.30;60.60;;;;;;5020990;28;20063;-71
2022/11/09 06:50:49;;;;;;;1.88;0.82;;;19.20;60.60;;;;;;5027843;28;20137;-72
2022/11/09 06:53:41;;;;;;;5.75;1.20;;;19.30;60.70;;;;;;5025058;28;20056;-71
2022/11/09 06:56:10;;;;;;;3.92;1.30;;;19.30;60.70;;;;;;5014967;28;20061;-72
2022/11/09 06:58:37;;;;;;;8.65;1.48;;;19.20;60.70;;;;;;5020405;28;20041;-70
2022/11/09 07:01:11;;;;;;;3.53;1.27;;;19.30;60.90;;;;;;5019801;28;20132;-71
2022/11/09 07:03:37;;;;;;;3.35;1.13;;;19.30;61.00;;;;;;5027184;28;20049;-71
2022/11/09 07:06:09;;;;;;;3.10;1.08;;;19.30;61.00;;;;;;5024742;28;20055;-71
2022/11/09 07:08:36;;;;;;;9.52;1.30;;;19.20;61.10;;;;;;5018978;28;20049;-71
2022/11/09 07:11:18;;;;;;;6.05;1.10;;;19.30;61.20;;;;;;5033787;28;20053;-71
2022/11/09 07:13:47;;;;;;;3.03;1.10;;;19.30;61.20;;;;;;5027518;28;20157;-71
2022/11/09 07:16:16;;;;;;;2.47;0.90;;;19.30;61.20;;;;;;5020273;28;20060;-71
2022/11/09 07:18:43;;;;;;;2.45;1.30;;;19.30;61.20;;;;;;5020833;28;20048;-72
2022/11/09 07:21:09;;;;;;;4.95;1.20;;;19.30;61.10;;;;;;5031945;28;20049;-70
2022/11/09 07:23:35;;;;;;;2.22;1.00;;;19.40;61.10;;;;;;5026862;28;20033;-68
2022/11/09 07:26:00;;;;;;;2.55;1.35;;;19.50;61.20;;;;;;5020951;28;20579;-71
2022/11/09 07:28:26;;;;;;;5.22;1.10;;;19.80;60.60;;;;;;5026770;28;20048;-72
2022/11/09 07:30:52;;;;;;;3.85;1.33;;;20.50;59.40;;;;;;5029157;28;20052;-72
2022/11/09 07:33:18;;;;;;;3.45;1.00;;;20.60;58.90;;;;;;5031249;28;20163;-72
2022/11/09 07:35:46;;;;;;;3.97;1.00;;;20.80;58.10;;;;;;5023474;28;20043;-72
2022/11/09 07:38:14;;;;;;;3.72;1.10;;;20.70;58.00;;;;;;5024399;28;20131;-72
2022/11/09 07:40:40;;;;;;;3.25;1.00;;;20.60;58.20;;;;;;5026371;28;20065;-73
2022/11/09 07:43:06;;;;;;;3.17;1.17;;;20.40;58.40;;;;;;5027296;28;20083;-72
2022/11/09 07:45:34;;;;;;;5.30;1.60;;;20.40;58.60;;;;;;5018582;28;20401;-71
2022/11/09 07:48:02;;;;;;;2.88;1.15;;;20.60;58.30;;;;;;5029321;28;20045;-74
2022/11/09 07:50:29;;;;;;;4.35;1.40;;;20.80;58.00;;;;;;5008254;28;20037;-73
2022/11/09 07:52:56;;;;;;;4.10;1.20;;;20.90;57.70;;;;;;5028062;28;20051;-71
2022/11/09 07:55:22;;;;;;;4.35;1.20;;;21.00;58.60;;;;;;5031085;28;20101;-73
2022/11/09 07:57:49;;;;;;;5.20;1.77;;;20.80;58.10;;;;;;5020579;28;20048;-71
2022/11/09 08:00:15;;;;;;;5.22;1.80;;;20.70;58.50;;;;;;5047668;28;20119;-72
2022/11/09 08:02:41;;;;;;;5.35;1.38;;;20.60;59.00;;;;;;5023204;28;20784;-73
2022/11/09 08:05:06;;;;;;;4.18;1.02;;;20.50;59.20;;;;;;5026441;28;20041;-70
2022/11/09 08:07:33;;;;;;;4.18;1.50;;;20.40;59.40;;;;;;5026648;28;20029;-71
2022/11/09 08:10:02;;;;;;;6.53;1.20;;;20.40;59.70;;;;;;5025311;28;20066;-72
2022/11/09 08:12:28;;;;;;;3.42;1.10;;;20.30;59.80;;;;;;5031085;28;20787;-71
2022/11/09 08:14:55;;;;;;;2.95;1.13;;;20.30;60.00;;;;;;5029539;28;20088;-70
2022/11/09 08:17:20;;;;;;;6.93;1.20;;;20.30;60.00;;;;;;5010090;28;20052;-71
2022/11/09 08:19:46;;;;;;;2.15;1.08;;;20.30;60.10;;;;;;5012303;28;20045;-71
2022/11/09 08:22:11;;;;;;;3.72;1.30;;;20.40;60.20;;;;;;5030766;28;20040;-72
2022/11/09 08:24:37;;;;;;;3.97;1.45;;;20.30;60.20;;;;;;5029010;28;20515;-72
2022/11/09 08:27:06;;;;;;;4.93;1.40;;;20.30;60.30;;;;;;5031320;28;20081;-72
2022/11/09 08:29:32;;;;;;;6.20;1.30;;;20.30;60.30;;;;;;5025101;28;20049;-72
2022/11/09 08:31:59;;;;;;;3.30;1.25;;;20.30;60.40;;;;;;5034519;28;20591;-72
2022/11/09 08:34:24;;;;;;;10.75;1.73;;;20.30;60.50;;;;;;5025727;28;20080;-73
2022/11/09 08:36:50;;;;;;;8.13;1.67;;;20.30;60.40;;;;;;5025934;28;20426;-71
2022/11/09 08:39:15;;;;;;;5.55;1.13;;;20.20;60.30;;;;;;5028522;28;20052;-72
2022/11/09 08:41:41;;;;;;;9.43;1.42;;;20.30;60.40;;;;;;5021933;28;20033;-71
2022/11/09 08:44:06;;;;;;;7.00;1.45;;;20.30;60.50;;;;;;5031098;28;20447;-71
2022/11/09 08:46:32;;;;;;;3.92;1.10;;;20.20;60.50;;;;;;5023719;28;20381;-71
2022/11/09 08:48:58;;;;;;;8.48;1.45;;;20.20;60.50;;;;;;5025336;28;20049;-70
2022/11/09 08:51:23;;;;;;;4.68;1.20;;;20.30;60.60;;;;;;5033873;28;20048;-72
2022/11/09 08:53:50;;;;;;;6.53;1.70;;;20.20;60.60;;;;;;5026359;28;20076;-71
2022/11/09 08:56:17;;;;;;;7.53;1.33;;;20.30;60.70;;;;;;5028946;28;20506;-72
2022/11/09 08:58:44;;;;;;;3.00;1.03;;;20.30;60.80;;;;;;5026504;28;20496;-73
2022/11/09 09:01:10;;;;;;;7.15;1.42;;;20.20;60.80;;;;;;5019608;28;20390;-71
2022/11/09 09:03:36;;;;;;;5.00;1.30;;;20.20;60.80;;;;;;5034173;28;20044;-71
2022/11/09 09:06:06;;;;;;;6.40;1.35;;;20.20;60.70;;;;;;5028331;28;20038;-73
2022/11/09 09:08:33;;;;;;;7.13;1.30;;;20.30;60.80;;;;;;5024123;28;20051;-70
2022/11/09 09:11:04;;;;;;;9.57;1.23;;;20.20;60.70;;;;;;5032239;28;20045;-71
2022/11/09 09:13:32;;;;;;;4.50;1.17;;;20.30;60.80;;;;;;5023171;28;20052;-71
2022/11/09 09:16:07;;;;;;;5.28;1.30;;;20.30;60.80;;;;;;5028318;28;20501;-72
2022/11/09 09:18:32;;;;;;;5.57;1.40;;;20.30;61.30;;;;;;5025186;28;20051;-71
2022/11/09 09:20:58;;;;;;;5.43;1.33;;;20.30;60.80;;;;;;5024043;28;20033;-69
2022/11/09 09:23:23;;;;;;;5.07;1.27;;;20.30;60.80;;;;;;5027585;28;20052;-72
2022/11/09 09:25:49;;;;;;;5.93;1.30;;;20.30;60.80;;;;;;5022958;28;20069;-72
2022/11/09 09:28:15;;;;;;;6.95;1.40;;;20.30;60.90;;;;;;5024690;28;20140;-74
2022/11/09 09:30:40;;;;;;;6.05;1.42;;;20.30;60.90;;;;;;5009100;28;20033;-70
2022/11/09 09:33:06;;;;;;;7.78;1.30;;;20.20;61.00;;;;;;5022609;28;20044;-72
2022/11/09 09:35:32;;;;;;;5.78;1.42;;;20.30;61.20;;;;;;5037016;28;20036;-70
2022/11/09 09:37:57;;;;;;;7.53;1.42;;;20.30;61.40;;;;;;5027816;28;20042;-71
2022/11/09 09:40:30;;;;;;;5.10;1.20;;;20.30;61.40;;;;;;5033281;28;20036;-69
2022/11/09 09:42:59;;;;;;;3.42;1.17;;;20.30;61.40;;;;;;5021985;28;20053;-73
2022/11/09 09:45:33;;;;;;;4.95;1.40;;;20.30;61.40;;;;;;5029922;28;20071;-72
2022/11/09 09:48:41;;;;;;;6.90;1.38;;;20.30;61.50;;;;;;5026776;28;20056;-71
2022/11/09 09:51:36;;;;;;;9.75;1.30;;;20.30;61.50;;;;;;5018376;28;20103;-74
2022/11/09 09:54:18;;;;;;;7.80;1.63;;;20.30;61.60;;;;;;4969570;28;20207;-73
2022/11/09 09:56:47;;;;;;;5.55;1.63;;;20.30;61.70;;;;;;5005084;28;20049;-72
2022/11/09 09:59:23;;;;;;;5.05;1.45;;;20.30;61.70;;;;;;5032705;28;20060;-72
2022/11/09 10:01:49;;;;;;;10.95;1.50;;;20.20;61.80;;;;;;5022816;28;20120;-71
2022/11/09 10:04:25;;;;;;;7.97;1.83;;;20.30;61.90;;;;;;5020264;28;20752;-68
2022/11/09 10:07:06;;;;;;;6.53;1.38;;;20.30;61.90;;;;;;5027026;28;20123;-73
2022/11/09 10:09:53;;;;;;;5.70;1.30;;;20.30;61.80;;;;;;5022190;28;20042;-71
2022/11/09 10:12:53;;;;;;;7.03;1.17;;;20.30;61.70;;;;;;5024826;28;20061;-69
2022/11/09 10:15:24;;;;;;;2.30;1.00;;;20.30;61.70;;;;;;5026623;28;20512;-70
2022/11/09 10:18:21;;;;;;;6.78;1.65;;;20.30;61.70;;;;;;5023405;28;20045;-71
2022/11/09 10:21:08;;;;;;;4.93;1.15;;;20.30;61.70;;;;;;4982811;28;20118;-69
2022/11/09 10:23:54;;;;;;;6.43;1.10;;;20.30;61.70;;;;;;5029946;28;20086;-69
2022/11/09 10:26:41;;;;;;;4.13;1.33;;;20.30;61.70;;;;;;5030961;28;20062;-69
2022/11/09 10:29:22;;;;;;;7.20;1.52;;;20.20;61.60;;;;;;5020539;28;20543;-68
2022/11/09 10:32:07;;;;;;;6.68;1.42;;;20.20;61.60;;;;;;5035048;28;20523;-69
2022/11/09 10:34:46;;;;;;;6.15;1.65;;;20.20;61.60;;;;;;5025840;28;20053;-69
2022/11/09 10:37:45;;;;;;;9.10;1.45;;;20.20;61.60;;;;;;5034381;28;20053;-69
2022/11/09 10:40:17;;;;;;;5.60;1.48;;;20.20;61.50;;;;;;5027752;28;20594;-69
2022/11/09 10:42:57;;;;;;;7.35;1.42;;;20.20;61.60;;;;;;5024568;28;20045;-70
2022/11/09 10:45:32;;;;;;;4.93;1.48;;;20.10;61.50;;;;;;5031958;28;20132;-71
2022/11/09 10:47:57;;;;;;;8.02;1.60;;;20.10;61.50;;;;;;5024719;28;20132;-70
2022/11/09 10:50:46;;;;;;;9.18;1.20;;;20.10;61.50;;;;;;5041571;28;20135;-70
2022/11/09 10:53:30;;;;;;;5.65;1.35;;;20.10;61.50;;;;;;5036760;28;20515;-71
2022/11/09 10:56:15;;;;;;;3.53;1.15;;;20.10;61.50;;;;;;5032120;28;20041;-71
2022/11/09 10:58:49;;;;;;;4.30;1.35;;;20.10;61.40;;;;;;5032604;28;20045;-72
2022/11/09 11:01:23;;;;;;;4.93;1.40;;;20.10;61.50;;;;;;5036465;28;20037;-71
2022/11/09 11:03:51;;;;;;;6.32;1.35;;;20.10;61.40;;;;;;5034763;28;20178;-71
2022/11/09 11:06:20;;;;;;;4.78;1.35;;;20.10;61.50;;;;;;5033786;28;20053;-73
2022/11/09 11:08:52;;;;;;;6.40;1.40;;;20.10;61.50;;;;;;5032680;28;20046;-72
2022/11/09 11:11:20;;;;;;;4.15;1.30;;;20.00;61.40;;;;;;5038686;28;20036;-70
2022/11/09 11:13:47;;;;;;;;;;;20.00;61.40;;;;;;5041671;28;20053;-73
2022/11/09 11:16:27;;;;;;;4.47;1.50;;;20.00;61.40;;;;;;5043012;28;19994;-71
2022/11/09 11:18:54;;;;;;;2.63;1.10;;;20.00;61.40;;;;;;5037784;28;20053;-71
2022/11/09 11:21:21;;;;;;;4.53;1.33;;;20.00;61.40;;;;;;5045040;28;20040;-71
2022/11/09 11:24:16;;;;;;;4.22;1.38;;;20.00;61.40;;;;;;5014078;28;20057;-73
2022/11/09 11:27:04;;;;;;;3.30;1.08;;;20.00;61.30;;;;;;5032054;28;20110;-72
2022/11/09 11:29:34;;;;;;;;;;;20.00;61.40;;;;;;5042304;28;20127;-73
2022/11/09 11:31:59;;;;;;;4.78;1.33;;;20.00;61.30;;;;;;5035583;28;20248;-72
2022/11/09 11:34:25;;;;;;;7.60;1.55;;;20.00;61.40;;;;;;5044268;28;20051;-73
2022/11/09 11:37:13;;;;;;;5.43;1.40;;;20.00;62.10;;;;;;5036126;28;20056;-73
2022/11/09 11:39:48;;;;;;;;;;;20.00;61.30;;;;;;5040081;28;20523;-71
2022/11/09 11:42:51;;;;;;;4.25;1.00;;;20.00;61.30;;;;;;5027748;28;19975;-71
2022/11/09 11:45:31;;;;;;;3.22;1.08;;;20.00;61.40;;;;;;5011008;28;20040;-70
2022/11/09 11:48:07;;;;;;;4.43;1.48;;;20.00;61.30;;;;;;5028916;28;20068;-71
2022/11/09 11:50:42;;;;;;;4.88;1.58;;;19.90;61.20;;;;;;5026826;28;20049;-70
2022/11/09 11:53:28;;;;;;;6.05;1.40;;;20.00;61.30;;;;;;5032822;28;20663;-71
2022/11/09 11:56:00;;;;;;;6.35;1.30;;;20.00;61.40;;;;;;5027303;28;20040;-72
2022/11/09 11:58:38;;;;;;;7.32;1.50;;;19.90;61.40;;;;;;5024730;28;20083;-71
2022/11/09 12:01:22;;;;;;;9.05;1.58;;;19.90;61.80;;;;;;5007830;28;20051;-72
2022/11/09 12:04:27;;;;;;;7.22;1.48;;;19.90;62.40;;;;;;5040897;28;20396;-71
2022/11/09 12:06:59;;;;;;;5.22;1.55;;;19.90;62.70;;;;;;5021408;28;20053;-70
2022/11/09 12:09:33;;;;;;;6.30;1.70;;;20.00;62.70;;;;;;5022180;28;20084;-71
2022/11/09 12:12:14;;;;;;;6.10;1.73;;;19.90;63.00;;;;;;5026055;28;20069;-73
2022/11/09 12:14:56;;;;;;;16.35;2.00;;;20.00;63.30;;;;;;5018257;28;20052;-72
2022/11/09 12:18:03;;;;;;;5.75;2.03;;;20.00;63.30;;;;;;5027985;28;20102;-71
2022/11/09 12:20:49;;;;;;;9.13;2.15;;;20.00;63.30;;;;;;5023825;28;20529;-69
2022/11/09 12:23:21;;;;;;;6.95;1.80;;;19.90;63.30;;;;;;5024539;28;20091;-69
2022/11/09 12:26:05;;;;;;;5.57;1.75;;;20.00;63.20;;;;;;5027332;28;20606;-72
2022/11/09 12:28:46;;;;;;;6.38;1.77;;;20.00;63.10;;;;;;5028299;28;20048;-72
2022/11/09 12:31:37;;;;;;;7.70;1.98;;;20.00;63.30;;;;;;5030083;28;20037;-72
2022/11/09 12:34:15;;;;;;;6.45;2.10;;;20.00;63.30;;;;;;5024826;28;20037;-72
2022/11/09 12:37:00;;;;;;;7.13;1.90;;;20.00;63.30;;;;;;5021899;28;20614;-70
2022/11/09 12:39:40;;;;;;;8.82;2.20;;;20.00;63.30;;;;;;5022255;28;20602;-70
2022/11/09 12:42:16;;;;;;;7.55;1.52;;;19.90;63.20;;;;;;5026883;28;20124;-71
2022/11/09 12:45:04;;;;;;;5.85;1.90;;;20.00;63.10;;;;;;5022136;28;20044;-71
2022/11/09 12:47:38;;;;;;;5.90;2.17;;;20.00;62.80;;;;;;5014522;28;20061;-70
2022/11/09 12:50:05;;;;;;;5.85;2.22;;;19.90;62.80;;;;;;5025246;28;20948;-70
2022/11/09 12:52:30;;;;;;;4.03;1.80;;;19.90;62.70;;;;;;5026534;28;20145;-71
2022/11/09 12:55:00;;;;;;;5.07;1.80;;;19.90;62.60;;;;;;5027568;28;20443;-71
2022/11/09 12:57:28;;;;;;;5.50;2.13;;;19.90;62.60;;;;;;5026495;28;20472;-72
2022/11/09 12:59:55;;;;;;;;;;;19.90;62.60;;;;;;5028391;28;20243;-71
2022/11/09 13:02:29;;;;;;;8.35;2.03;;;19.90;62.50;;;;;;5027003;28;20296;-72